Time;durP1;ratioP1;P1;durP2;ratioP2;P2;SDS_P1;SDS_P2;PMS_P1;PMS_P2;Temp;Humidity;BMP_temperature;BMP_pressure;BME280_temperature;BME280_humidity;BME280_pressure;Samples;Min_cycle;Max_cycle;Signal;HPM_P1;HPM_P2
2022/12/18 00:00:43;;;;;;;9.15;5.93;;;0.30;95.00;;;;;;5054424;28;20029;-67
2022/12/18 00:03:09;;;;;;;10.18;5.88;;;0.30;95.10;;;;;;5055058;28;20481;-67
2022/12/18 00:05:35;;;;;;;10.13;6.10;;;0.30;94.90;;;;;;5054934;28;20111;-67
2022/12/18 00:08:01;;;;;;;10.75;6.80;;;0.30;95.00;;;;;;5036733;28;20082;-67
2022/12/18 00:10:27;;;;;;;9.93;6.70;;;0.30;95.10;;;;;;5054325;28;20025;-67
2022/12/18 00:12:53;;;;;;;12.43;6.78;;;0.30;95.20;;;;;;5054392;28;20036;-66
2022/12/18 00:15:19;;;;;;;13.77;7.43;;;0.30;95.30;;;;;;5054636;28;20025;-66
2022/12/18 00:17:44;;;;;;;11.10;6.28;;;0.30;95.40;;;;;;5054314;28;20382;-67
2022/12/18 00:20:10;;;;;;;14.30;6.80;;;0.30;95.40;;;;;;5054847;28;20025;-66
2022/12/18 00:22:36;;;;;;;12.07;6.85;;;0.30;95.20;;;;;;5054859;28;20122;-66
2022/12/18 00:25:02;;;;;;;15.95;7.18;;;0.20;95.10;;;;;;5053854;28;20025;-66
2022/12/18 00:27:27;;;;;;;13.75;6.88;;;0.20;95.50;;;;;;5054155;28;20033;-66
2022/12/18 00:29:53;;;;;;;11.30;7.00;;;0.20;95.60;;;;;;5053423;28;20075;-66
2022/12/18 00:32:19;;;;;;;10.63;7.03;;;0.20;95.80;;;;;;5054334;28;20112;-65
2022/12/18 00:34:44;;;;;;;11.00;6.72;;;0.20;96.10;;;;;;5053920;28;20393;-66
2022/12/18 00:37:10;;;;;;;12.57;6.68;;;0.10;96.10;;;;;;5054154;28;20128;-66
2022/12/18 00:39:36;;;;;;;9.45;6.70;;;0.10;96.20;;;;;;5054273;28;20029;-66
2022/12/18 00:44:45;;;;;;;12.98;6.93;;;0.00;96.50;;;;;;5053650;28;20036;-68
2022/12/18 00:47:11;;;;;;;10.85;6.00;;;0.00;96.40;;;;;;5053836;28;20025;-67
2022/12/18 00:49:36;;;;;;;13.73;7.25;;;0.00;96.30;;;;;;5054090;28;20436;-67
2022/12/18 00:52:02;;;;;;;9.77;6.15;;;-0.10;96.30;;;;;;5053399;28;20269;-67
2022/12/18 00:54:28;;;;;;;12.65;7.18;;;-0.10;96.30;;;;;;5053839;28;20033;-67
2022/12/18 00:56:55;;;;;;;15.18;7.57;;;-0.10;96.30;;;;;;5053215;28;20088;-66
2022/12/18 00:59:20;;;;;;;11.05;6.68;;;-0.10;96.00;;;;;;5053835;28;20032;-67
2022/12/18 01:01:47;;;;;;;12.45;7.28;;;-0.20;96.00;;;;;;5053270;28;20021;-67
2022/12/18 01:04:13;;;;;;;12.07;6.88;;;-0.20;96.00;;;;;;5053863;28;20029;-66
2022/12/18 01:06:38;;;;;;;12.85;6.88;;;-0.30;96.20;;;;;;5053706;28;20469;-67
2022/12/18 01:09:04;;;;;;;13.13;8.05;;;-0.30;96.70;;;;;;5052336;28;20033;-67
2022/12/18 01:11:30;;;;;;;13.20;7.93;;;-0.30;96.90;;;;;;5053225;28;20025;-66
2022/12/18 01:13:56;;;;;;;16.13;8.48;;;-0.30;97.20;;;;;;5053204;28;20025;-66
2022/12/18 01:16:22;;;;;;;16.33;8.50;;;-0.30;97.30;;;;;;5053494;28;20385;-67
2022/12/18 01:18:51;;;;;;;16.58;8.48;;;-0.30;97.60;;;;;;5053295;28;20387;-67
2022/12/18 01:21:17;;;;;;;13.20;8.68;;;-0.30;97.70;;;;;;5053769;28;20021;-67
2022/12/18 01:23:46;;;;;;;15.18;9.38;;;-0.40;97.90;;;;;;5053552;28;20421;-67
2022/12/18 01:26:15;;;;;;;16.70;9.27;;;-0.40;98.10;;;;;;5053798;28;20051;-67
2022/12/18 01:28:41;;;;;;;20.38;10.70;;;-0.40;98.10;;;;;;5053260;28;20067;-67
2022/12/18 01:31:33;;;;;;;22.10;10.88;;;-0.40;98.20;;;;;;5052919;28;20112;-67
2022/12/18 01:34:03;;;;;;;21.65;11.30;;;-0.40;98.10;;;;;;5051875;28;20068;-67
2022/12/18 01:36:31;;;;;;;21.93;11.70;;;-0.50;98.00;;;;;;5053208;28;20045;-67
2022/12/18 01:39:00;;;;;;;22.40;12.05;;;-0.50;98.30;;;;;;5052857;28;20033;-67
2022/12/18 01:42:01;;;;;;;21.80;12.20;;;-0.50;98.40;;;;;;5052878;28;20065;-67
2022/12/18 01:44:56;;;;;;;26.45;13.77;;;-0.50;98.50;;;;;;5052430;28;20061;-67
2022/12/18 01:47:40;;;;;;;23.25;12.48;;;-0.60;98.60;;;;;;5053075;28;20029;-67
2022/12/18 01:50:14;;;;;;;21.00;12.73;;;-0.60;98.50;;;;;;5052401;28;20048;-67
2022/12/18 01:52:46;;;;;;;25.52;13.38;;;-0.60;98.40;;;;;;5053015;28;20172;-67
2022/12/18 01:55:14;;;;;;;22.27;12.88;;;-0.60;98.20;;;;;;5052892;28;20028;-67
2022/12/18 01:57:41;;;;;;;23.67;13.98;;;-0.60;98.00;;;;;;5051603;28;20090;-67
2022/12/18 02:00:16;;;;;;;24.50;13.68;;;-0.70;98.30;;;;;;5052373;28;20485;-67
2022/12/18 02:02:44;;;;;;;26.15;12.73;;;-0.70;98.40;;;;;;5052685;28;20079;-67
2022/12/18 02:05:12;;;;;;;26.20;13.95;;;-0.70;98.70;;;;;;5052322;28;20091;-67
2022/12/18 02:07:46;;;;;;;25.02;14.32;;;-0.80;98.80;;;;;;5052921;28;20476;-67
2022/12/18 02:10:26;;;;;;;27.13;13.98;;;-0.80;98.90;;;;;;5052294;28;20062;-67
2022/12/18 02:13:10;;;;;;;33.20;14.98;;;-0.80;99.30;;;;;;5052403;28;20027;-67
2022/12/18 02:15:39;;;;;;;24.42;13.65;;;-0.80;99.40;;;;;;5053350;28;20021;-67
2022/12/18 02:18:22;;;;;;;24.77;13.45;;;-0.80;99.70;;;;;;5055508;28;20073;-67
2022/12/18 02:20:52;;;;;;;26.50;13.95;;;-0.80;99.60;;;;;;5056513;28;20217;-67
2022/12/18 02:23:52;;;;;;;25.92;14.07;;;-0.90;99.70;;;;;;5052515;28;20111;-67
2022/12/18 02:26:19;;;;;;;27.90;14.80;;;-0.90;99.90;;;;;;5044707;28;20455;-67
2022/12/18 02:29:02;;;;;;;27.30;14.68;;;-0.90;99.90;;;;;;5052465;28;20124;-67
2022/12/18 02:31:31;;;;;;;29.55;15.80;;;-0.90;99.90;;;;;;5052555;28;20358;-67
2022/12/18 02:34:01;;;;;;;27.92;15.43;;;-1.00;99.90;;;;;;5050582;28;20021;-67
2022/12/18 02:36:28;;;;;;;25.77;14.23;;;-0.90;99.90;;;;;;5051783;28;20053;-66
2022/12/18 02:38:55;;;;;;;30.27;14.23;;;-1.00;99.90;;;;;;5051660;28;20033;-68
2022/12/18 02:41:22;;;;;;;28.63;15.45;;;-1.00;99.90;;;;;;5052041;28;20035;-67
2022/12/18 02:43:49;;;;;;;29.50;15.93;;;-1.00;99.90;;;;;;5052253;28;20025;-67
2022/12/18 02:46:27;;;;;;;26.55;14.70;;;-1.10;99.90;;;;;;5051578;28;20446;-68
2022/12/18 02:49:02;;;;;;;29.95;16.38;;;-1.10;99.90;;;;;;5052365;28;20505;-66
2022/12/18 02:51:45;;;;;;;30.25;15.32;;;-1.10;99.90;;;;;;5052679;28;20063;-66
2022/12/18 02:54:43;;;;;;;29.00;15.40;;;-1.10;99.90;;;;;;5054431;28;20021;-66
2022/12/18 02:57:33;;;;;;;29.92;16.15;;;-1.10;99.90;;;;;;5055874;28;20106;-65
2022/12/18 03:00:10;;;;;;;26.33;14.25;;;-1.10;99.90;;;;;;5050101;28;20041;-67
2022/12/18 03:02:46;;;;;;;28.40;15.77;;;-1.20;99.90;;;;;;5060733;28;20389;-67
2022/12/18 03:05:22;;;;;;;28.23;15.27;;;-1.20;99.90;;;;;;5060507;28;20021;-66
2022/12/18 03:07:58;;;;;;;28.10;15.40;;;-1.10;99.90;;;;;;5060858;28;20025;-66
2022/12/18 03:10:30;;;;;;;28.70;14.80;;;-1.20;99.90;;;;;;5056507;28;20032;-67
2022/12/18 03:13:20;;;;;;;32.25;16.83;;;-1.20;99.90;;;;;;5055950;28;20488;-67
2022/12/18 03:15:50;;;;;;;29.45;15.75;;;-1.20;99.90;;;;;;5055905;28;20031;-66
2022/12/18 03:18:18;;;;;;;29.13;15.52;;;-1.30;99.90;;;;;;5055716;28;20131;-66
2022/12/18 03:20:47;;;;;;;29.77;16.35;;;-1.30;99.90;;;;;;5056713;28;20029;-66
2022/12/18 03:23:17;;;;;;;29.10;16.33;;;-1.30;99.90;;;;;;5056217;28;20081;-66
2022/12/18 03:25:45;;;;;;;26.73;15.03;;;-1.30;99.90;;;;;;5056645;28;20043;-66
2022/12/18 03:28:16;;;;;;;33.55;16.65;;;-1.30;99.90;;;;;;5056176;28;20278;-66
2022/12/18 03:30:45;;;;;;;31.33;15.90;;;-1.40;99.90;;;;;;5056062;28;20021;-66
2022/12/18 03:33:24;;;;;;;28.20;15.63;;;-1.40;99.90;;;;;;5055834;28;20041;-66
2022/12/18 03:35:50;;;;;;;30.63;15.95;;;-1.50;99.90;;;;;;5055813;28;20111;-67
2022/12/18 03:38:15;;;;;;;33.53;18.00;;;-1.50;99.90;;;;;;5055408;28;20079;-67
2022/12/18 03:40:47;;;;;;;32.67;17.30;;;-1.50;99.90;;;;;;5054577;28;20032;-67
2022/12/18 03:43:35;;;;;;;33.40;17.05;;;-1.50;99.90;;;;;;5054485;28;20117;-67
2022/12/18 03:46:24;;;;;;;33.90;17.08;;;-1.50;99.90;;;;;;5055455;28;20032;-66
2022/12/18 03:48:58;;;;;;;32.60;16.13;;;-1.50;99.90;;;;;;5055561;28;20056;-66
2022/12/18 03:51:30;;;;;;;34.38;17.95;;;-1.50;99.90;;;;;;5055205;28;20047;-66
2022/12/18 03:54:00;;;;;;;33.55;17.48;;;-1.50;99.90;;;;;;5055468;28;20028;-69
2022/12/18 03:56:32;;;;;;;31.35;15.70;;;-1.50;99.90;;;;;;5055040;28;20035;-67
2022/12/18 03:59:00;;;;;;;36.13;17.27;;;-1.50;99.90;;;;;;5054578;28;20323;-67
2022/12/18 04:01:32;;;;;;;29.48;16.27;;;-1.60;99.90;;;;;;5054780;28;20469;-67
2022/12/18 04:04:00;;;;;;;31.02;17.48;;;-1.60;99.90;;;;;;5054495;28;20477;-67
2022/12/18 04:06:27;;;;;;;30.70;16.85;;;-1.60;99.90;;;;;;5054015;28;20056;-67
2022/12/18 04:08:53;;;;;;;30.75;16.75;;;-1.60;99.90;;;;;;5054559;28;20075;-67
2022/12/18 04:11:19;;;;;;;34.83;18.10;;;-1.60;99.90;;;;;;5054577;28;20017;-67
2022/12/18 04:13:44;;;;;;;33.38;17.92;;;-1.60;99.90;;;;;;5055057;28;20458;-67
2022/12/18 04:16:10;;;;;;;35.83;18.52;;;-1.60;99.90;;;;;;5054438;28;20029;-67
2022/12/18 04:18:36;;;;;;;35.30;17.88;;;-1.60;99.90;;;;;;5053455;28;20458;-67
2022/12/18 04:21:02;;;;;;;32.28;18.45;;;-1.70;99.90;;;;;;5054381;28;20331;-67
2022/12/18 04:23:28;;;;;;;35.50;18.17;;;-1.70;99.90;;;;;;5054734;28;20021;-67
2022/12/18 04:25:54;;;;;;;34.72;19.42;;;-1.70;99.90;;;;;;5054659;28;20024;-66
2022/12/18 04:28:20;;;;;;;35.47;18.40;;;-1.70;99.90;;;;;;5053994;28;20075;-67
2022/12/18 04:30:45;;;;;;;31.90;17.35;;;-1.70;99.90;;;;;;5054736;28;20500;-66
2022/12/18 04:33:12;;;;;;;37.42;18.92;;;-1.70;99.90;;;;;;5052815;28;20116;-66
2022/12/18 04:35:39;;;;;;;34.38;18.20;;;-1.80;99.90;;;;;;5054526;28;20062;-66
2022/12/18 04:38:08;;;;;;;35.08;18.20;;;-1.80;99.90;;;;;;5053725;28;20519;-66
2022/12/18 04:40:34;;;;;;;32.95;18.05;;;-1.80;99.90;;;;;;5054463;28;20140;-66
2022/12/18 04:42:59;;;;;;;34.67;18.92;;;-1.80;99.90;;;;;;5054348;28;20033;-66
2022/12/18 04:45:25;;;;;;;36.10;18.45;;;-1.90;99.90;;;;;;5054207;28;20393;-67
2022/12/18 04:47:51;;;;;;;37.53;19.38;;;-1.90;99.90;;;;;;5054835;28;20454;-67
2022/12/18 04:50:16;;;;;;;39.22;19.60;;;-1.90;99.90;;;;;;5054075;28;20443;-67
2022/12/18 04:52:42;;;;;;;33.88;18.98;;;-1.90;99.90;;;;;;5054231;28;20025;-66
2022/12/18 04:55:08;;;;;;;50.33;25.10;;;-2.00;99.90;;;;;;5054065;28;20032;-66
2022/12/18 04:57:33;;;;;;;45.13;21.60;;;-2.00;99.90;;;;;;5054163;28;20440;-66
2022/12/18 04:59:59;;;;;;;37.25;19.27;;;-2.00;99.90;;;;;;5053686;28;20021;-66
2022/12/18 05:02:25;;;;;;;37.10;19.65;;;-2.00;99.90;;;;;;5053584;28;20029;-66
2022/12/18 05:04:50;;;;;;;41.20;19.80;;;-2.00;99.90;;;;;;5054288;28;20421;-66
2022/12/18 05:07:16;;;;;;;37.40;19.45;;;-2.00;99.90;;;;;;5053239;28;20474;-66
2022/12/18 05:09:42;;;;;;;33.72;19.02;;;-2.00;99.90;;;;;;5053825;28;20083;-66
2022/12/18 05:12:07;;;;;;;36.63;20.27;;;-2.00;99.90;;;;;;5053371;28;20056;-66
2022/12/18 05:14:33;;;;;;;33.33;18.10;;;-2.00;99.90;;;;;;5053696;28;20021;-66
2022/12/18 05:16:58;;;;;;;36.50;18.85;;;-2.10;99.90;;;;;;5053136;28;20037;-66
2022/12/18 05:19:24;;;;;;;34.38;19.05;;;-2.00;99.90;;;;;;5052926;28;20029;-66
2022/12/18 05:21:50;;;;;;;34.58;18.63;;;-2.00;99.90;;;;;;5054252;28;20032;-66
2022/12/18 05:24:15;;;;;;;38.22;19.20;;;-2.10;99.90;;;;;;5053148;28;20481;-66
2022/12/18 05:26:41;;;;;;;35.72;19.77;;;-2.00;99.90;;;;;;5053658;28;20079;-66
2022/12/18 05:29:06;;;;;;;41.97;20.20;;;-2.00;99.90;;;;;;5053249;28;20029;-66
2022/12/18 05:31:32;;;;;;;41.13;19.65;;;-2.00;99.90;;;;;;5053553;28;20025;-66
2022/12/18 05:33:58;;;;;;;43.50;20.38;;;-2.00;99.90;;;;;;5053712;28;20070;-66
2022/12/18 05:36:23;;;;;;;40.88;19.35;;;-2.00;99.90;;;;;;5052899;28;20507;-66
2022/12/18 05:38:49;;;;;;;36.58;20.00;;;-2.10;99.90;;;;;;5053253;28;20032;-66
2022/12/18 05:41:14;;;;;;;40.92;19.30;;;-2.00;99.90;;;;;;5053038;28;20033;-66
2022/12/18 05:43:40;;;;;;;33.58;18.20;;;-2.00;99.90;;;;;;5053190;28;20366;-66
2022/12/18 05:46:09;;;;;;;32.28;16.98;;;-2.00;99.90;;;;;;5052641;28;20384;-67
2022/12/18 05:48:34;;;;;;;38.13;19.50;;;-2.00;99.90;;;;;;5053154;28;20232;-66
2022/12/18 05:51:09;;;;;;;38.83;19.52;;;-2.10;99.90;;;;;;5053293;28;20139;-67
2022/12/18 05:53:36;;;;;;;34.55;17.17;;;-2.10;99.90;;;;;;5053043;28;20497;-67
2022/12/18 05:56:03;;;;;;;32.40;16.92;;;-2.10;99.90;;;;;;5053225;28;20346;-67
2022/12/18 05:58:30;;;;;;;34.42;16.83;;;-2.10;99.90;;;;;;5052640;28;20072;-67
2022/12/18 06:00:56;;;;;;;33.10;17.08;;;-2.10;99.90;;;;;;5052932;28;20039;-67
2022/12/18 06:03:21;;;;;;;32.22;17.27;;;-2.10;99.90;;;;;;5051686;28;20021;-67
2022/12/18 06:05:47;;;;;;;31.02;16.60;;;-2.10;99.90;;;;;;5052556;28;20458;-67
2022/12/18 06:08:13;;;;;;;27.80;16.30;;;-2.10;99.90;;;;;;5052426;28;20028;-67
2022/12/18 06:10:40;;;;;;;35.78;17.45;;;-2.20;99.90;;;;;;5051474;28;20025;-67
2022/12/18 06:13:06;;;;;;;31.00;16.90;;;-2.20;99.90;;;;;;5051296;28;20151;-67
2022/12/18 06:15:32;;;;;;;32.42;16.67;;;-2.20;99.90;;;;;;5052631;28;20021;-67
2022/12/18 06:17:58;;;;;;;34.03;16.40;;;-2.20;99.90;;;;;;5052545;28;20040;-67
2022/12/18 06:20:23;;;;;;;31.13;17.15;;;-2.20;99.90;;;;;;5052008;28;20025;-67
2022/12/18 06:22:49;;;;;;;28.27;16.23;;;-2.20;99.90;;;;;;5052206;28;20099;-67
2022/12/18 06:25:15;;;;;;;29.48;16.88;;;-2.20;99.90;;;;;;5051942;28;20044;-67
2022/12/18 06:27:40;;;;;;;31.20;16.77;;;-2.20;99.90;;;;;;5052334;28;20033;-67
2022/12/18 06:30:07;;;;;;;32.17;16.42;;;-2.30;99.90;;;;;;5052139;28;20020;-67
2022/12/18 06:32:32;;;;;;;29.77;16.63;;;-2.20;99.90;;;;;;5052747;28;20047;-67
2022/12/18 06:34:58;;;;;;;31.35;16.77;;;-2.30;99.90;;;;;;5052183;28;20108;-67
2022/12/18 06:37:25;;;;;;;33.45;16.67;;;-2.30;99.90;;;;;;5051850;28;20053;-67
2022/12/18 06:39:52;;;;;;;27.88;15.95;;;-2.30;99.90;;;;;;5052241;28;20029;-67
2022/12/18 06:42:18;;;;;;;30.88;17.70;;;-2.30;99.90;;;;;;5051875;28;20044;-67
2022/12/18 06:44:43;;;;;;;31.27;16.63;;;-2.30;99.90;;;;;;5052302;28;20025;-67
2022/12/18 06:47:09;;;;;;;33.45;17.25;;;-2.30;99.90;;;;;;5051693;28;20035;-69
2022/12/18 06:49:35;;;;;;;36.78;18.77;;;-2.30;99.90;;;;;;5051862;28;20418;-67
2022/12/18 06:52:00;;;;;;;31.20;17.48;;;-2.30;99.90;;;;;;5052152;28;20366;-67
2022/12/18 06:54:26;;;;;;;34.38;17.08;;;-2.40;99.90;;;;;;5051456;28;20070;-67
2022/12/18 06:56:51;;;;;;;35.33;18.77;;;-2.30;99.90;;;;;;5051747;28;20434;-67
2022/12/18 06:59:17;;;;;;;32.33;17.83;;;-2.40;99.90;;;;;;5051469;28;20120;-67
2022/12/18 07:01:43;;;;;;;36.15;18.40;;;-2.30;99.90;;;;;;5051795;28;20031;-66
2022/12/18 07:04:08;;;;;;;31.70;17.83;;;-2.40;99.90;;;;;;5051753;28;20416;-66
2022/12/18 07:06:34;;;;;;;36.00;17.88;;;-2.40;99.90;;;;;;5051718;28;20029;-66
2022/12/18 07:09:00;;;;;;;28.73;16.58;;;-2.30;99.90;;;;;;5051776;28;20017;-66
2022/12/18 07:11:25;;;;;;;37.65;18.55;;;-2.30;99.90;;;;;;5051806;28;20036;-67
2022/12/18 07:13:52;;;;;;;35.38;17.75;;;-2.30;99.90;;;;;;5051868;28;20377;-68
2022/12/18 07:16:20;;;;;;;33.05;18.45;;;-2.20;99.90;;;;;;5051568;28;20029;-67
2022/12/18 07:18:46;;;;;;;27.77;15.98;;;-2.30;99.90;;;;;;5052230;28;20041;-66
2022/12/18 07:21:15;;;;;;;34.75;18.13;;;-2.20;99.90;;;;;;5052248;28;20025;-70
2022/12/18 07:23:41;;;;;;;35.63;20.15;;;-2.10;99.90;;;;;;5052150;28;20090;-67
2022/12/18 07:26:08;;;;;;;36.45;19.35;;;-2.10;99.90;;;;;;5054108;28;20521;-66
2022/12/18 07:28:35;;;;;;;41.22;21.42;;;-2.00;99.90;;;;;;5051661;28;20032;-67
2022/12/18 07:31:10;;;;;;;40.47;21.50;;;-2.00;99.90;;;;;;5051647;28;20025;-66
2022/12/18 07:33:37;;;;;;;43.03;23.05;;;-1.90;99.90;;;;;;5052818;28;20107;-67
2022/12/18 07:36:04;;;;;;;42.53;21.98;;;-1.90;99.90;;;;;;5051710;28;20153;-66
2022/12/18 07:38:31;;;;;;;41.92;22.25;;;-1.90;99.90;;;;;;5051476;28;20091;-66
2022/12/18 07:41:03;;;;;;;41.22;22.67;;;-1.90;99.90;;;;;;5054596;28;20465;-67
2022/12/18 07:43:29;;;;;;;46.80;23.40;;;-1.90;99.90;;;;;;5055210;28;20025;-67
2022/12/18 07:45:55;;;;;;;51.08;21.95;;;-1.80;99.90;;;;;;5055598;28;20091;-67
2022/12/18 07:48:20;;;;;;;44.03;22.25;;;-1.80;99.90;;;;;;5054821;28;20036;-67
2022/12/18 07:50:46;;;;;;;43.78;22.98;;;-1.80;99.90;;;;;;5055424;28;20048;-67
2022/12/18 07:53:11;;;;;;;41.95;22.35;;;-1.80;99.90;;;;;;5055538;28;20032;-67
2022/12/18 07:55:37;;;;;;;45.65;21.42;;;-1.70;99.90;;;;;;5054268;28;20068;-67
2022/12/18 07:58:04;;;;;;;42.67;21.92;;;-1.70;99.90;;;;;;5053647;28;20033;-67
2022/12/18 08:00:30;;;;;;;38.58;20.40;;;-1.60;99.90;;;;;;5054879;28;20040;-67
2022/12/18 08:02:57;;;;;;;43.30;21.92;;;-1.60;99.90;;;;;;5054879;28;20529;-66
2022/12/18 08:05:23;;;;;;;42.00;21.02;;;-1.50;99.90;;;;;;5054780;28;20032;-67
2022/12/18 08:07:49;;;;;;;42.03;22.42;;;-1.50;99.90;;;;;;5055151;28;20312;-66
2022/12/18 08:10:15;;;;;;;47.42;23.30;;;-1.40;99.90;;;;;;5054625;28;20036;-67
2022/12/18 08:12:40;;;;;;;41.95;21.63;;;-1.30;99.90;;;;;;5055197;28;20025;-67
2022/12/18 08:15:06;;;;;;;43.00;22.63;;;-1.30;99.90;;;;;;5055150;28;20026;-66
2022/12/18 08:17:32;;;;;;;46.90;22.05;;;-1.30;99.90;;;;;;5053385;28;20133;-67
2022/12/18 08:19:58;;;;;;;41.30;22.58;;;-1.30;99.90;;;;;;5054719;28;20021;-66
2022/12/18 08:22:23;;;;;;;42.20;22.27;;;-1.20;99.90;;;;;;5054583;28;20083;-66
2022/12/18 08:24:49;;;;;;;38.92;20.83;;;-1.10;99.90;;;;;;5054915;28;20108;-68
2022/12/18 08:27:15;;;;;;;44.03;21.85;;;-1.10;99.90;;;;;;5054819;28;20044;-67
2022/12/18 08:29:40;;;;;;;41.72;22.30;;;-1.20;99.90;;;;;;5054609;28;20025;-66
2022/12/18 08:32:06;;;;;;;41.65;22.27;;;-1.20;99.90;;;;;;5054753;28;20103;-67
2022/12/18 08:34:32;;;;;;;39.67;21.13;;;-1.10;99.90;;;;;;5053109;28;20523;-67
2022/12/18 08:36:57;;;;;;;43.45;23.77;;;-1.10;99.90;;;;;;5053460;28;20052;-68
2022/12/18 08:39:23;;;;;;;47.83;22.75;;;-1.20;99.90;;;;;;5054179;28;20025;-66
2022/12/18 08:44:37;;;;;;;44.00;22.33;;;-1.10;99.90;;;;;;5054902;28;20021;-68
2022/12/18 08:44:37;;;;;;;41.83;21.58;;;-1.10;99.90;;;;;;5053968;28;20033;-66
2022/12/18 08:47:03;;;;;;;39.95;22.30;;;-1.00;99.90;;;;;;5054137;28;20032;-67
2022/12/18 08:49:29;;;;;;;44.90;23.02;;;-1.10;99.90;;;;;;5054034;28;20373;-66
2022/12/18 08:51:57;;;;;;;47.50;23.45;;;-1.10;99.90;;;;;;5053869;28;20029;-66
2022/12/18 08:54:23;;;;;;;43.15;23.10;;;-1.10;99.90;;;;;;5054196;28;20433;-68
2022/12/18 08:56:49;;;;;;;44.85;24.08;;;-1.10;99.90;;;;;;5054804;28;20033;-66
2022/12/18 08:59:16;;;;;;;49.55;25.92;;;-1.10;99.90;;;;;;5054445;28;20166;-66
2022/12/18 09:01:42;;;;;;;45.97;24.65;;;-1.10;99.90;;;;;;5053835;28;20449;-68
2022/12/18 09:04:09;;;;;;;47.38;24.42;;;-1.10;99.90;;;;;;5054442;28;20033;-67
2022/12/18 09:06:35;;;;;;;49.88;26.02;;;-1.10;99.90;;;;;;5053860;28;20029;-66
2022/12/18 09:09:01;;;;;;;51.92;26.35;;;-1.10;99.90;;;;;;5053949;28;20386;-66
2022/12/18 09:11:28;;;;;;;51.47;25.15;;;-1.10;99.90;;;;;;5053815;28;20029;-67
2022/12/18 09:13:55;;;;;;;49.78;24.70;;;-1.10;99.90;;;;;;5053890;28;20043;-66
2022/12/18 09:16:22;;;;;;;49.05;25.33;;;-1.10;99.90;;;;;;5053570;28;20025;-67
2022/12/18 09:18:48;;;;;;;55.72;26.25;;;-1.10;99.90;;;;;;5053462;28;20440;-66
2022/12/18 09:21:20;;;;;;;56.75;28.05;;;-1.00;99.90;;;;;;5053448;28;20025;-66
2022/12/18 09:23:53;;;;;;;51.67;26.02;;;-1.00;99.90;;;;;;5053804;28;20044;-67
2022/12/18 09:26:20;;;;;;;47.83;25.35;;;-1.00;99.90;;;;;;5053472;28;20032;-68
2022/12/18 09:28:45;;;;;;;54.30;27.35;;;-1.00;99.90;;;;;;5053799;28;20464;-66
2022/12/18 09:31:14;;;;;;;51.33;25.95;;;-0.90;99.90;;;;;;5053780;28;20025;-67
2022/12/18 09:33:40;;;;;;;49.67;25.58;;;-0.90;99.90;;;;;;5052982;28;20028;-67
2022/12/18 09:36:09;;;;;;;51.38;26.52;;;-0.90;99.90;;;;;;5053040;28;20350;-67
2022/12/18 09:38:35;;;;;;;52.83;26.00;;;-0.90;99.90;;;;;;5052500;28;20041;-66
2022/12/18 09:41:05;;;;;;;55.55;26.42;;;-0.90;99.90;;;;;;5052861;28;20052;-66
2022/12/18 09:43:51;;;;;;;52.55;26.42;;;-0.90;99.90;;;;;;5052859;28;20389;-67
2022/12/18 09:46:27;;;;;;;51.00;26.05;;;-0.90;99.90;;;;;;5052872;28;20079;-66
2022/12/18 09:48:55;;;;;;;54.38;27.30;;;-0.80;99.90;;;;;;5053264;28;20519;-66
2022/12/18 09:51:29;;;;;;;51.15;25.80;;;-0.80;99.90;;;;;;5053374;28;20029;-66
2022/12/18 09:54:06;;;;;;;50.17;25.15;;;-0.80;99.90;;;;;;5052770;28;20025;-66
2022/12/18 09:56:39;;;;;;;50.33;22.77;;;-0.80;99.90;;;;;;5052681;28;20029;-66
2022/12/18 09:59:05;;;;;;;44.13;22.38;;;-0.80;99.90;;;;;;5053231;28;20048;-66
2022/12/18 10:01:33;;;;;;;51.20;23.05;;;-0.80;99.90;;;;;;5052506;28;20029;-66
2022/12/18 10:03:59;;;;;;;43.60;23.35;;;-0.80;99.90;;;;;;5051687;28;20032;-66
2022/12/18 10:06:54;;;;;;;44.22;22.38;;;-0.80;99.90;;;;;;5052111;28;20047;-66
2022/12/18 10:09:37;;;;;;;51.03;22.10;;;-0.80;99.90;;;;;;5051517;28;20058;-66
2022/12/18 10:12:27;;;;;;;42.53;22.63;;;-0.80;99.90;;;;;;5051679;28;20029;-66
2022/12/18 10:15:12;;;;;;;52.63;23.65;;;-0.80;99.90;;;;;;5052936;28;20025;-66
2022/12/18 10:17:38;;;;;;;49.20;23.17;;;-0.90;99.90;;;;;;5052002;28;20107;-67
2022/12/18 10:20:22;;;;;;;43.45;21.08;;;-0.90;99.90;;;;;;5050943;28;20108;-67
2022/12/18 10:23:09;;;;;;;46.38;21.55;;;-0.90;99.90;;;;;;5050961;28;20555;-67
2022/12/18 10:25:53;;;;;;;47.95;22.63;;;-0.90;99.90;;;;;;5052060;28;20423;-67
2022/12/18 10:28:20;;;;;;;46.28;23.02;;;-0.90;99.90;;;;;;5052491;28;20385;-67
2022/12/18 10:30:46;;;;;;;47.70;22.13;;;-0.90;99.90;;;;;;5052317;28;20099;-67
2022/12/18 10:33:15;;;;;;;43.88;22.30;;;-0.90;99.90;;;;;;5052464;28;20343;-66
2022/12/18 10:35:42;;;;;;;49.63;24.85;;;-0.90;99.90;;;;;;5051858;28;20032;-66
2022/12/18 10:38:13;;;;;;;44.05;22.45;;;-0.90;99.90;;;;;;5052240;28;20098;-66
2022/12/18 10:41:03;;;;;;;50.78;24.10;;;-0.90;99.90;;;;;;5051923;28;20021;-66
2022/12/18 10:43:30;;;;;;;46.00;23.58;;;-0.90;99.90;;;;;;5051802;28;20029;-66
2022/12/18 10:46:01;;;;;;;46.83;23.70;;;-0.90;99.90;;;;;;5052248;28;20025;-66
2022/12/18 10:48:27;;;;;;;44.97;23.42;;;-0.90;99.90;;;;;;5051991;28;20033;-69
2022/12/18 10:50:53;;;;;;;47.03;24.25;;;-0.90;99.90;;;;;;5050870;28;20432;-66
2022/12/18 10:53:28;;;;;;;49.60;24.67;;;-0.90;99.90;;;;;;5052120;28;20180;-67
2022/12/18 10:55:57;;;;;;;44.67;23.10;;;-0.80;99.90;;;;;;5052189;28;20023;-67
2022/12/18 10:58:32;;;;;;;44.95;23.27;;;-0.90;99.90;;;;;;5051521;28;20092;-67
2022/12/18 11:01:11;;;;;;;48.75;25.13;;;-0.90;99.90;;;;;;5051720;28;20048;-67
2022/12/18 11:03:41;;;;;;;50.33;23.23;;;-0.90;99.90;;;;;;5051763;28;20354;-67
2022/12/18 11:06:10;;;;;;;48.38;24.83;;;-0.80;99.90;;;;;;5052243;28;20083;-67
2022/12/18 11:08:37;;;;;;;52.58;24.73;;;-0.80;99.90;;;;;;5051791;28;20063;-67
2022/12/18 11:11:07;;;;;;;51.50;22.95;;;-0.80;99.90;;;;;;5051776;28;20033;-67
2022/12/18 11:13:32;;;;;;;44.38;23.02;;;-0.80;99.90;;;;;;5051629;28;20021;-67
2022/12/18 11:15:59;;;;;;;46.63;22.98;;;-0.70;99.90;;;;;;5055187;28;20453;-67
2022/12/18 11:18:34;;;;;;;46.55;22.63;;;-0.70;99.90;;;;;;5056104;28;20043;-67
2022/12/18 11:21:07;;;;;;;46.17;23.70;;;-0.70;99.90;;;;;;5056629;28;20029;-67
2022/12/18 11:23:34;;;;;;;46.58;23.33;;;-0.70;99.90;;;;;;5055515;28;20366;-67
2022/12/18 11:26:03;;;;;;;48.53;23.90;;;-0.70;99.90;;;;;;5056132;28;20025;-67
2022/12/18 11:28:49;;;;;;;46.30;22.63;;;-0.70;99.90;;;;;;5055871;28;20033;-66
2022/12/18 11:31:25;;;;;;;56.10;25.52;;;-0.70;99.70;;;;;;5055995;28;20032;-67
2022/12/18 11:34:04;;;;;;;51.95;24.48;;;-0.80;99.90;;;;;;5055609;28;20029;-66
2022/12/18 11:36:34;;;;;;;49.75;23.80;;;-0.80;99.90;;;;;;5055815;28;20041;-66
2022/12/18 11:39:09;;;;;;;43.72;23.75;;;-0.80;99.90;;;;;;5055886;28;20387;-66
2022/12/18 11:42:09;;;;;;;58.15;25.75;;;-0.80;99.90;;;;;;5055153;28;20086;-66
2022/12/18 11:44:51;;;;;;;47.88;23.83;;;-0.80;99.90;;;;;;5055153;28;20036;-66
2022/12/18 11:47:29;;;;;;;48.58;22.83;;;-0.70;99.90;;;;;;5055547;28;20033;-66
2022/12/18 11:49:59;;;;;;;48.03;23.83;;;-0.60;99.90;;;;;;5055129;28;20390;-66
2022/12/18 11:52:37;;;;;;;44.07;22.30;;;-0.60;99.90;;;;;;5055213;28;20039;-66
2022/12/18 11:55:10;;;;;;;53.22;26.05;;;-0.60;99.90;;;;;;5055212;28;20278;-66
2022/12/18 11:58:03;;;;;;;56.10;25.67;;;-0.60;99.90;;;;;;5054504;28;20033;-66
2022/12/18 12:00:30;;;;;;;42.13;22.50;;;-0.50;99.90;;;;;;5055299;28;20363;-66
2022/12/18 12:03:04;;;;;;;46.42;24.17;;;-0.50;99.90;;;;;;5054736;28;20029;-66
2022/12/18 12:05:36;;;;;;;47.70;24.05;;;-0.60;99.90;;;;;;5055231;28;20048;-66
2022/12/18 12:08:07;;;;;;;46.72;22.85;;;-0.60;99.90;;;;;;5055000;28;20381;-66
2022/12/18 12:10:35;;;;;;;;;;;-0.60;99.90;;;;;;5055365;28;20024;-67
2022/12/18 12:13:10;;;;;;;44.42;21.77;;;-0.60;99.90;;;;;;5055152;28;19908;-66
2022/12/18 12:15:54;;;;;;;48.33;23.40;;;-0.60;99.90;;;;;;5054788;28;20057;-66
2022/12/18 12:18:38;;;;;;;51.00;24.42;;;-0.60;99.90;;;;;;5054846;28;20041;-66
2022/12/18 12:21:10;;;;;;;52.38;25.08;;;-0.60;99.90;;;;;;5054791;28;20029;-65
2022/12/18 12:23:35;;;;;;;58.47;25.48;;;-0.60;99.90;;;;;;5054027;28;20025;-66
2022/12/18 12:26:10;;;;;;;48.17;25.60;;;-0.50;99.90;;;;;;5053869;28;20027;-67
2022/12/18 12:29:00;;;;;;;54.05;25.48;;;-0.60;99.90;;;;;;5054288;28;20037;-66
2022/12/18 12:31:34;;;;;;;41.53;22.15;;;-0.60;99.90;;;;;;5054355;28;20428;-66
2022/12/18 12:34:47;;;;;;;52.80;24.67;;;-0.70;99.90;;;;;;5054507;28;20412;-67
2022/12/18 12:37:42;;;;;;;48.67;23.70;;;-0.70;99.90;;;;;;5022439;28;20076;-67
2022/12/18 12:40:15;;;;;;;51.47;24.08;;;-0.70;99.90;;;;;;5054094;28;20473;-67
2022/12/18 12:45:50;;;;;;;43.67;22.58;;;-0.70;99.90;;;;;;5054006;28;20394;-66
2022/12/18 12:48:25;;;;;;;47.58;24.38;;;-0.70;99.90;;;;;;5054392;28;20028;-66